sensor_id;sensor_type;location;lat;lon;timestamp;P1;durP1;ratioP1;P2;durP2;ratioP2
38715;SDS011;24833;49.324;8.694;2024-03-06T00:01:08;2.22;;;1.65;;
38715;SDS011;24833;49.324;8.694;2024-03-06T00:03:35;1.70;;;1.52;;
38715;SDS011;24833;49.324;8.694;2024-03-06T00:06:02;2.42;;;1.95;;
38715;SDS011;24833;49.324;8.694;2024-03-06T00:08:30;1.73;;;1.50;;
38715;SDS011;24833;49.324;8.694;2024-03-06T00:10:57;2.50;;;1.90;;
38715;SDS011;24833;49.324;8.694;2024-03-06T00:13:24;2.08;;;1.88;;
38715;SDS011;24833;49.324;8.694;2024-03-06T00:15:51;1.70;;;1.60;;
38715;SDS011;24833;49.324;8.694;2024-03-06T00:18:18;4.07;;;1.65;;
38715;SDS011;24833;49.324;8.694;2024-03-06T00:20:50;1.65;;;1.55;;
38715;SDS011;24833;49.324;8.694;2024-03-06T00:23:18;1.77;;;1.40;;
38715;SDS011;24833;49.324;8.694;2024-03-06T00:25:45;1.70;;;1.50;;
38715;SDS011;24833;49.324;8.694;2024-03-06T00:28:13;1.75;;;1.35;;
38715;SDS011;24833;49.324;8.694;2024-03-06T00:30:40;2.55;;;1.52;;
38715;SDS011;24833;49.324;8.694;2024-03-06T00:33:08;1.88;;;1.33;;
38715;SDS011;24833;49.324;8.694;2024-03-06T00:35:35;2.83;;;1.45;;
38715;SDS011;24833;49.324;8.694;2024-03-06T00:38:02;1.60;;;1.40;;
38715;SDS011;24833;49.324;8.694;2024-03-06T00:40:30;2.10;;;1.50;;
38715;SDS011;24833;49.324;8.694;2024-03-06T00:42:57;2.20;;;1.40;;
38715;SDS011;24833;49.324;8.694;2024-03-06T00:45:24;1.95;;;1.45;;
38715;SDS011;24833;49.324;8.694;2024-03-06T00:47:52;1.80;;;1.50;;
38715;SDS011;24833;49.324;8.694;2024-03-06T00:50:19;2.47;;;1.52;;
38715;SDS011;24833;49.324;8.694;2024-03-06T00:52:48;1.63;;;1.42;;
38715;SDS011;24833;49.324;8.694;2024-03-06T00:55:15;1.88;;;1.38;;
38715;SDS011;24833;49.324;8.694;2024-03-06T00:57:43;1.40;;;1.30;;
38715;SDS011;24833;49.324;8.694;2024-03-06T01:00:10;1.55;;;1.35;;
38715;SDS011;24833;49.324;8.694;2024-03-06T01:02:37;2.30;;;1.40;;
38715;SDS011;24833;49.324;8.694;2024-03-06T01:05:05;2.30;;;1.40;;
38715;SDS011;24833;49.324;8.694;2024-03-06T01:07:33;1.35;;;1.25;;
38715;SDS011;24833;49.324;8.694;2024-03-06T01:10:01;2.58;;;1.90;;
38715;SDS011;24833;49.324;8.694;2024-03-06T01:12:28;1.73;;;1.30;;
38715;SDS011;24833;49.324;8.694;2024-03-06T01:14:56;1.83;;;1.27;;
38715;SDS011;24833;49.324;8.694;2024-03-06T01:17:23;1.60;;;1.40;;
38715;SDS011;24833;49.324;8.694;2024-03-06T01:19:50;1.50;;;1.40;;
38715;SDS011;24833;49.324;8.694;2024-03-06T01:22:18;1.50;;;1.40;;
38715;SDS011;24833;49.324;8.694;2024-03-06T01:24:45;1.48;;;1.38;;
38715;SDS011;24833;49.324;8.694;2024-03-06T01:27:15;1.40;;;1.30;;
38715;SDS011;24833;49.324;8.694;2024-03-06T01:29:43;1.67;;;1.20;;
38715;SDS011;24833;49.324;8.694;2024-03-06T01:32:10;1.38;;;1.13;;
38715;SDS011;24833;49.324;8.694;2024-03-06T01:34:37;1.30;;;1.20;;
38715;SDS011;24833;49.324;8.694;2024-03-06T01:37:04;1.38;;;1.17;;
38715;SDS011;24833;49.324;8.694;2024-03-06T01:39:31;1.13;;;1.02;;
38715;SDS011;24833;49.324;8.694;2024-03-06T01:41:59;1.00;;;0.90;;
38715;SDS011;24833;49.324;8.694;2024-03-06T01:44:26;1.50;;;1.20;;
38715;SDS011;24833;49.324;8.694;2024-03-06T01:46:53;1.33;;;1.23;;
38715;SDS011;24833;49.324;8.694;2024-03-06T01:49:21;1.00;;;1.00;;
38715;SDS011;24833;49.324;8.694;2024-03-06T01:52:01;1.27;;;1.17;;
38715;SDS011;24833;49.324;8.694;2024-03-06T01:54:29;1.40;;;1.30;;
38715;SDS011;24833;49.324;8.694;2024-03-06T01:56:58;1.10;;;1.00;;
38715;SDS011;24833;49.324;8.694;2024-03-06T01:59:28;1.60;;;1.20;;
38715;SDS011;24833;49.324;8.694;2024-03-06T02:02:02;1.17;;;1.08;;
38715;SDS011;24833;49.324;8.694;2024-03-06T02:04:31;1.15;;;1.08;;
38715;SDS011;24833;49.324;8.694;2024-03-06T02:06:58;1.70;;;1.30;;
38715;SDS011;24833;49.324;8.694;2024-03-06T02:09:26;1.38;;;1.27;;
38715;SDS011;24833;49.324;8.694;2024-03-06T02:11:53;1.60;;;1.50;;
38715;SDS011;24833;49.324;8.694;2024-03-06T02:14:20;1.80;;;1.42;;
38715;SDS011;24833;49.324;8.694;2024-03-06T02:16:48;1.65;;;1.50;;
38715;SDS011;24833;49.324;8.694;2024-03-06T02:19:16;1.70;;;1.38;;
38715;SDS011;24833;49.324;8.694;2024-03-06T02:21:43;1.60;;;1.33;;
38715;SDS011;24833;49.324;8.694;2024-03-06T02:24:10;1.50;;;1.40;;
38715;SDS011;24833;49.324;8.694;2024-03-06T02:26:39;1.73;;;1.55;;
38715;SDS011;24833;49.324;8.694;2024-03-06T02:29:08;1.63;;;1.52;;
38715;SDS011;24833;49.324;8.694;2024-03-06T02:31:37;2.08;;;1.73;;
38715;SDS011;24833;49.324;8.694;2024-03-06T02:34:05;1.42;;;1.33;;
38715;SDS011;24833;49.324;8.694;2024-03-06T02:36:33;1.50;;;1.35;;
38715;SDS011;24833;49.324;8.694;2024-03-06T02:39:00;1.70;;;1.40;;
38715;SDS011;24833;49.324;8.694;2024-03-06T02:41:35;2.20;;;1.63;;
38715;SDS011;24833;49.324;8.694;2024-03-06T02:44:02;1.63;;;1.52;;
38715;SDS011;24833;49.324;8.694;2024-03-06T02:46:30;1.77;;;1.55;;
38715;SDS011;24833;49.324;8.694;2024-03-06T02:48:58;1.48;;;1.38;;
38715;SDS011;24833;49.324;8.694;2024-03-06T02:51:25;1.50;;;1.30;;
38715;SDS011;24833;49.324;8.694;2024-03-06T02:53:52;1.42;;;1.33;;
38715;SDS011;24833;49.324;8.694;2024-03-06T02:56:19;1.70;;;1.45;;
38715;SDS011;24833;49.324;8.694;2024-03-06T02:58:46;1.17;;;1.08;;
38715;SDS011;24833;49.324;8.694;2024-03-06T03:01:14;1.65;;;1.20;;
38715;SDS011;24833;49.324;8.694;2024-03-06T03:03:41;1.92;;;1.38;;
38715;SDS011;24833;49.324;8.694;2024-03-06T03:06:09;1.27;;;1.17;;
38715;SDS011;24833;49.324;8.694;2024-03-06T03:08:37;1.25;;;1.15;;
38715;SDS011;24833;49.324;8.694;2024-03-06T03:11:05;1.50;;;1.40;;
38715;SDS011;24833;49.324;8.694;2024-03-06T03:13:32;1.30;;;1.20;;
38715;SDS011;24833;49.324;8.694;2024-03-06T03:15:59;2.55;;;1.20;;
38715;SDS011;24833;49.324;8.694;2024-03-06T03:18:26;1.50;;;1.40;;
38715;SDS011;24833;49.324;8.694;2024-03-06T03:20:53;1.75;;;1.63;;
38715;SDS011;24833;49.324;8.694;2024-03-06T03:23:20;1.98;;;1.80;;
38715;SDS011;24833;49.324;8.694;2024-03-06T03:25:49;2.25;;;1.88;;
38715;SDS011;24833;49.324;8.694;2024-03-06T03:28:16;2.38;;;1.92;;
38715;SDS011;24833;49.324;8.694;2024-03-06T03:30:43;2.53;;;2.22;;
38715;SDS011;24833;49.324;8.694;2024-03-06T03:33:11;2.13;;;1.88;;
38715;SDS011;24833;49.324;8.694;2024-03-06T03:35:38;2.63;;;2.15;;
38715;SDS011;24833;49.324;8.694;2024-03-06T03:38:05;2.15;;;1.95;;
38715;SDS011;24833;49.324;8.694;2024-03-06T03:40:32;2.28;;;2.08;;
38715;SDS011;24833;49.324;8.694;2024-03-06T03:42:59;2.35;;;2.00;;
38715;SDS011;24833;49.324;8.694;2024-03-06T03:45:32;2.35;;;2.10;;
38715;SDS011;24833;49.324;8.694;2024-03-06T03:48:03;1.83;;;1.65;;
38715;SDS011;24833;49.324;8.694;2024-03-06T03:50:31;2.00;;;1.70;;
38715;SDS011;24833;49.324;8.694;2024-03-06T03:52:59;1.80;;;1.70;;
38715;SDS011;24833;49.324;8.694;2024-03-06T03:55:27;1.70;;;1.60;;
38715;SDS011;24833;49.324;8.694;2024-03-06T03:57:54;1.58;;;1.48;;
38715;SDS011;24833;49.324;8.694;2024-03-06T04:00:21;2.28;;;1.90;;
38715;SDS011;24833;49.324;8.694;2024-03-06T04:02:49;2.15;;;1.95;;
38715;SDS011;24833;49.324;8.694;2024-03-06T04:05:16;2.75;;;1.95;;
38715;SDS011;24833;49.324;8.694;2024-03-06T04:07:43;2.20;;;2.00;;
38715;SDS011;24833;49.324;8.694;2024-03-06T04:10:11;2.13;;;1.90;;
38715;SDS011;24833;49.324;8.694;2024-03-06T04:12:38;3.40;;;2.08;;
38715;SDS011;24833;49.324;8.694;2024-03-06T04:15:06;2.17;;;1.85;;
38715;SDS011;24833;49.324;8.694;2024-03-06T04:17:34;2.33;;;1.70;;
38715;SDS011;24833;49.324;8.694;2024-03-06T04:20:04;2.92;;;2.30;;
38715;SDS011;24833;49.324;8.694;2024-03-06T04:22:33;3.75;;;2.17;;
38715;SDS011;24833;49.324;8.694;2024-03-06T04:25:00;2.47;;;2.00;;
38715;SDS011;24833;49.324;8.694;2024-03-06T04:27:31;2.20;;;2.00;;
38715;SDS011;24833;49.324;8.694;2024-03-06T04:29:59;2.10;;;1.90;;
38715;SDS011;24833;49.324;8.694;2024-03-06T04:32:27;2.00;;;1.80;;
38715;SDS011;24833;49.324;8.694;2024-03-06T04:34:54;2.17;;;1.98;;
38715;SDS011;24833;49.324;8.694;2024-03-06T04:37:22;2.40;;;2.08;;
38715;SDS011;24833;49.324;8.694;2024-03-06T04:39:49;2.38;;;1.98;;
38715;SDS011;24833;49.324;8.694;2024-03-06T04:42:16;1.42;;;1.33;;
38715;SDS011;24833;49.324;8.694;2024-03-06T04:44:45;2.05;;;1.80;;
38715;SDS011;24833;49.324;8.694;2024-03-06T04:47:12;1.65;;;1.50;;
38715;SDS011;24833;49.324;8.694;2024-03-06T04:49:39;1.42;;;1.33;;
38715;SDS011;24833;49.324;8.694;2024-03-06T04:52:06;1.75;;;1.65;;
38715;SDS011;24833;49.324;8.694;2024-03-06T04:54:33;1.75;;;1.60;;
38715;SDS011;24833;49.324;8.694;2024-03-06T04:57:00;2.05;;;1.52;;
38715;SDS011;24833;49.324;8.694;2024-03-06T04:59:28;1.67;;;1.58;;
38715;SDS011;24833;49.324;8.694;2024-03-06T05:01:55;1.80;;;1.70;;
38715;SDS011;24833;49.324;8.694;2024-03-06T05:04:22;1.30;;;1.20;;
38715;SDS011;24833;49.324;8.694;2024-03-06T05:07:07;1.30;;;1.20;;
38715;SDS011;24833;49.324;8.694;2024-03-06T05:09:52;1.52;;;1.42;;
38715;SDS011;24833;49.324;8.694;2024-03-06T05:12:37;2.00;;;1.80;;
38715;SDS011;24833;49.324;8.694;2024-03-06T05:15:21;1.50;;;1.40;;
38715;SDS011;24833;49.324;8.694;2024-03-06T05:18:06;1.30;;;1.20;;
38715;SDS011;24833;49.324;8.694;2024-03-06T05:20:52;1.60;;;1.50;;
38715;SDS011;24833;49.324;8.694;2024-03-06T05:23:38;2.13;;;1.92;;
38715;SDS011;24833;49.324;8.694;2024-03-06T05:26:23;2.30;;;2.10;;
38715;SDS011;24833;49.324;8.694;2024-03-06T05:29:07;2.20;;;1.92;;
38715;SDS011;24833;49.324;8.694;2024-03-06T05:31:52;2.17;;;2.00;;
38715;SDS011;24833;49.324;8.694;2024-03-06T05:34:37;2.08;;;1.90;;
38715;SDS011;24833;49.324;8.694;2024-03-06T05:37:22;2.13;;;1.92;;
38715;SDS011;24833;49.324;8.694;2024-03-06T05:40:06;3.03;;;2.50;;
38715;SDS011;24833;49.324;8.694;2024-03-06T05:42:53;2.42;;;2.22;;
38715;SDS011;24833;49.324;8.694;2024-03-06T05:45:37;2.35;;;1.90;;
38715;SDS011;24833;49.324;8.694;2024-03-06T05:48:22;1.70;;;1.60;;
38715;SDS011;24833;49.324;8.694;2024-03-06T05:51:08;2.22;;;2.03;;
38715;SDS011;24833;49.324;8.694;2024-03-06T05:53:53;2.80;;;1.90;;
38715;SDS011;24833;49.324;8.694;2024-03-06T05:56:38;2.13;;;1.92;;
38715;SDS011;24833;49.324;8.694;2024-03-06T05:59:23;3.10;;;2.05;;
38715;SDS011;24833;49.324;8.694;2024-03-06T06:01:50;2.03;;;1.77;;
38715;SDS011;24833;49.324;8.694;2024-03-06T06:04:17;2.65;;;2.30;;
38715;SDS011;24833;49.324;8.694;2024-03-06T06:06:44;2.05;;;1.88;;
38715;SDS011;24833;49.324;8.694;2024-03-06T06:09:11;2.10;;;1.90;;
38715;SDS011;24833;49.324;8.694;2024-03-06T06:11:43;2.88;;;2.15;;
38715;SDS011;24833;49.324;8.694;2024-03-06T06:14:11;2.00;;;1.80;;
38715;SDS011;24833;49.324;8.694;2024-03-06T06:16:38;2.05;;;1.80;;
38715;SDS011;24833;49.324;8.694;2024-03-06T06:19:07;2.55;;;2.10;;
38715;SDS011;24833;49.324;8.694;2024-03-06T06:21:34;2.10;;;2.00;;
38715;SDS011;24833;49.324;8.694;2024-03-06T06:24:02;2.72;;;1.77;;
38715;SDS011;24833;49.324;8.694;2024-03-06T06:26:31;2.08;;;1.83;;
38715;SDS011;24833;49.324;8.694;2024-03-06T06:28:59;2.17;;;1.92;;
38715;SDS011;24833;49.324;8.694;2024-03-06T06:31:26;2.13;;;1.92;;
38715;SDS011;24833;49.324;8.694;2024-03-06T06:33:53;3.22;;;2.25;;
38715;SDS011;24833;49.324;8.694;2024-03-06T06:36:20;2.05;;;1.83;;
38715;SDS011;24833;49.324;8.694;2024-03-06T06:38:47;2.30;;;1.67;;
38715;SDS011;24833;49.324;8.694;2024-03-06T06:41:16;1.73;;;1.63;;
38715;SDS011;24833;49.324;8.694;2024-03-06T06:43:44;1.73;;;1.60;;
38715;SDS011;24833;49.324;8.694;2024-03-06T06:46:11;1.83;;;1.70;;
38715;SDS011;24833;49.324;8.694;2024-03-06T06:48:38;1.85;;;1.73;;
38715;SDS011;24833;49.324;8.694;2024-03-06T06:51:05;1.90;;;1.70;;
38715;SDS011;24833;49.324;8.694;2024-03-06T06:53:32;2.10;;;1.90;;
38715;SDS011;24833;49.324;8.694;2024-03-06T06:55:59;1.52;;;1.42;;
38715;SDS011;24833;49.324;8.694;2024-03-06T06:58:26;1.60;;;1.50;;
38715;SDS011;24833;49.324;8.694;2024-03-06T07:00:53;1.75;;;1.40;;
38715;SDS011;24833;49.324;8.694;2024-03-06T07:03:20;1.33;;;1.23;;
38715;SDS011;24833;49.324;8.694;2024-03-06T07:05:56;1.52;;;1.42;;
38715;SDS011;24833;49.324;8.694;2024-03-06T07:08:23;1.40;;;1.30;;
38715;SDS011;24833;49.324;8.694;2024-03-06T07:10:50;2.17;;;1.40;;
38715;SDS011;24833;49.324;8.694;2024-03-06T07:13:20;2.33;;;1.58;;
38715;SDS011;24833;49.324;8.694;2024-03-06T07:15:47;1.52;;;1.40;;
38715;SDS011;24833;49.324;8.694;2024-03-06T07:18:14;1.77;;;1.40;;
38715;SDS011;24833;49.324;8.694;2024-03-06T07:20:41;2.22;;;1.50;;
38715;SDS011;24833;49.324;8.694;2024-03-06T07:23:08;3.63;;;2.30;;
38715;SDS011;24833;49.324;8.694;2024-03-06T07:25:35;2.00;;;1.80;;
38715;SDS011;24833;49.324;8.694;2024-03-06T07:28:02;1.65;;;1.55;;
38715;SDS011;24833;49.324;8.694;2024-03-06T07:30:30;2.17;;;1.70;;
38715;SDS011;24833;49.324;8.694;2024-03-06T07:32:57;1.88;;;1.77;;
38715;SDS011;24833;49.324;8.694;2024-03-06T07:35:24;1.50;;;1.40;;
38715;SDS011;24833;49.324;8.694;2024-03-06T07:37:51;1.40;;;1.23;;
38715;SDS011;24833;49.324;8.694;2024-03-06T07:40:18;2.00;;;1.80;;
38715;SDS011;24833;49.324;8.694;2024-03-06T07:42:46;2.40;;;1.50;;
38715;SDS011;24833;49.324;8.694;2024-03-06T07:45:13;1.85;;;1.45;;
38715;SDS011;24833;49.324;8.694;2024-03-06T07:47:40;1.48;;;1.38;;
38715;SDS011;24833;49.324;8.694;2024-03-06T07:50:08;1.98;;;1.70;;
38715;SDS011;24833;49.324;8.694;2024-03-06T07:52:37;1.80;;;1.55;;
38715;SDS011;24833;49.324;8.694;2024-03-06T07:55:04;2.13;;;1.83;;
38715;SDS011;24833;49.324;8.694;2024-03-06T07:57:32;2.28;;;1.80;;
38715;SDS011;24833;49.324;8.694;2024-03-06T07:59:59;2.20;;;2.05;;
38715;SDS011;24833;49.324;8.694;2024-03-06T08:02:26;2.15;;;1.95;;
38715;SDS011;24833;49.324;8.694;2024-03-06T08:04:54;2.42;;;1.70;;
38715;SDS011;24833;49.324;8.694;2024-03-06T08:07:22;2.30;;;2.10;;
38715;SDS011;24833;49.324;8.694;2024-03-06T08:09:50;2.47;;;2.28;;
38715;SDS011;24833;49.324;8.694;2024-03-06T08:12:17;3.40;;;3.03;;
38715;SDS011;24833;49.324;8.694;2024-03-06T08:14:44;3.53;;;3.17;;
38715;SDS011;24833;49.324;8.694;2024-03-06T08:17:11;3.65;;;3.10;;
38715;SDS011;24833;49.324;8.694;2024-03-06T08:19:38;3.05;;;2.75;;
38715;SDS011;24833;49.324;8.694;2024-03-06T08:22:05;3.42;;;3.08;;
38715;SDS011;24833;49.324;8.694;2024-03-06T08:24:33;3.53;;;3.05;;
38715;SDS011;24833;49.324;8.694;2024-03-06T08:27:00;3.55;;;3.05;;
38715;SDS011;24833;49.324;8.694;2024-03-06T08:29:27;3.95;;;3.35;;
38715;SDS011;24833;49.324;8.694;2024-03-06T08:31:54;3.55;;;2.80;;
38715;SDS011;24833;49.324;8.694;2024-03-06T08:34:24;3.45;;;2.80;;
38715;SDS011;24833;49.324;8.694;2024-03-06T08:36:51;3.67;;;3.30;;
38715;SDS011;24833;49.324;8.694;2024-03-06T08:39:19;3.22;;;2.92;;
38715;SDS011;24833;49.324;8.694;2024-03-06T08:41:46;3.67;;;3.00;;
38715;SDS011;24833;49.324;8.694;2024-03-06T08:44:13;3.50;;;2.80;;
38715;SDS011;24833;49.324;8.694;2024-03-06T08:46:40;3.40;;;3.05;;
38715;SDS011;24833;49.324;8.694;2024-03-06T08:49:08;3.65;;;3.17;;
38715;SDS011;24833;49.324;8.694;2024-03-06T08:51:36;3.75;;;3.30;;
38715;SDS011;24833;49.324;8.694;2024-03-06T08:54:03;3.50;;;2.90;;
38715;SDS011;24833;49.324;8.694;2024-03-06T08:56:30;3.60;;;3.30;;
38715;SDS011;24833;49.324;8.694;2024-03-06T08:58:57;2.90;;;2.67;;
38715;SDS011;24833;49.324;8.694;2024-03-06T09:01:25;3.28;;;2.97;;
38715;SDS011;24833;49.324;8.694;2024-03-06T09:03:52;3.65;;;3.33;;
38715;SDS011;24833;49.324;8.694;2024-03-06T09:06:19;4.05;;;2.78;;
38715;SDS011;24833;49.324;8.694;2024-03-06T09:08:46;3.38;;;3.08;;
38715;SDS011;24833;49.324;8.694;2024-03-06T09:11:15;3.63;;;3.30;;
38715;SDS011;24833;49.324;8.694;2024-03-06T09:13:42;4.15;;;3.50;;
38715;SDS011;24833;49.324;8.694;2024-03-06T09:16:09;4.75;;;3.95;;
38715;SDS011;24833;49.324;8.694;2024-03-06T09:18:36;3.88;;;3.35;;
38715;SDS011;24833;49.324;8.694;2024-03-06T09:21:04;4.63;;;3.80;;
38715;SDS011;24833;49.324;8.694;2024-03-06T09:23:31;5.75;;;3.83;;
38715;SDS011;24833;49.324;8.694;2024-03-06T09:25:59;5.57;;;4.47;;
38715;SDS011;24833;49.324;8.694;2024-03-06T09:28:26;3.88;;;3.53;;
38715;SDS011;24833;49.324;8.694;2024-03-06T09:30:53;4.10;;;3.53;;
38715;SDS011;24833;49.324;8.694;2024-03-06T09:33:20;4.10;;;3.67;;
38715;SDS011;24833;49.324;8.694;2024-03-06T09:35:49;4.90;;;4.15;;
38715;SDS011;24833;49.324;8.694;2024-03-06T09:38:16;5.53;;;4.20;;
38715;SDS011;24833;49.324;8.694;2024-03-06T09:40:45;5.90;;;4.60;;
38715;SDS011;24833;49.324;8.694;2024-03-06T09:43:12;4.50;;;4.10;;
38715;SDS011;24833;49.324;8.694;2024-03-06T09:45:40;5.15;;;4.65;;
38715;SDS011;24833;49.324;8.694;2024-03-06T09:48:08;4.75;;;4.32;;
38715;SDS011;24833;49.324;8.694;2024-03-06T09:50:35;4.53;;;4.13;;
38715;SDS011;24833;49.324;8.694;2024-03-06T09:53:08;5.55;;;4.35;;
38715;SDS011;24833;49.324;8.694;2024-03-06T09:55:36;6.85;;;5.18;;
38715;SDS011;24833;49.324;8.694;2024-03-06T09:58:04;6.20;;;4.55;;
38715;SDS011;24833;49.324;8.694;2024-03-06T10:00:31;5.05;;;4.47;;
38715;SDS011;24833;49.324;8.694;2024-03-06T10:02:59;5.72;;;4.95;;
38715;SDS011;24833;49.324;8.694;2024-03-06T10:05:29;4.78;;;4.28;;
38715;SDS011;24833;49.324;8.694;2024-03-06T10:07:57;4.75;;;3.97;;
38715;SDS011;24833;49.324;8.694;2024-03-06T10:10:25;4.60;;;3.65;;
38715;SDS011;24833;49.324;8.694;2024-03-06T10:12:53;4.22;;;3.83;;
38715;SDS011;24833;49.324;8.694;2024-03-06T10:15:20;4.18;;;3.78;;
38715;SDS011;24833;49.324;8.694;2024-03-06T10:17:48;4.18;;;3.65;;
38715;SDS011;24833;49.324;8.694;2024-03-06T10:20:22;3.80;;;3.33;;
38715;SDS011;24833;49.324;8.694;2024-03-06T10:22:51;3.75;;;3.35;;
38715;SDS011;24833;49.324;8.694;2024-03-06T10:25:24;4.63;;;3.40;;
38715;SDS011;24833;49.324;8.694;2024-03-06T10:28:09;3.40;;;3.10;;
38715;SDS011;24833;49.324;8.694;2024-03-06T10:30:38;3.50;;;3.20;;
38715;SDS011;24833;49.324;8.694;2024-03-06T10:33:12;3.10;;;2.70;;
38715;SDS011;24833;49.324;8.694;2024-03-06T10:35:41;3.08;;;2.72;;
38715;SDS011;24833;49.324;8.694;2024-03-06T10:38:14;3.38;;;2.83;;
38715;SDS011;24833;49.324;8.694;2024-03-06T10:40:42;3.63;;;3.30;;
38715;SDS011;24833;49.324;8.694;2024-03-06T10:43:10;4.03;;;3.40;;
38715;SDS011;24833;49.324;8.694;2024-03-06T10:45:59;3.50;;;3.20;;
38715;SDS011;24833;49.324;8.694;2024-03-06T10:48:30;3.53;;;3.15;;
38715;SDS011;24833;49.324;8.694;2024-03-06T10:51:01;3.40;;;3.10;;
38715;SDS011;24833;49.324;8.694;2024-03-06T10:53:30;4.68;;;3.35;;
38715;SDS011;24833;49.324;8.694;2024-03-06T10:56:01;3.88;;;3.47;;
38715;SDS011;24833;49.324;8.694;2024-03-06T10:58:30;3.67;;;3.35;;
38715;SDS011;24833;49.324;8.694;2024-03-06T11:00:59;4.03;;;3.50;;
38715;SDS011;24833;49.324;8.694;2024-03-06T11:03:27;5.15;;;3.85;;
38715;SDS011;24833;49.324;8.694;2024-03-06T11:05:57;3.60;;;3.28;;
38715;SDS011;24833;49.324;8.694;2024-03-06T11:08:26;4.30;;;3.67;;
38715;SDS011;24833;49.324;8.694;2024-03-06T11:10:55;5.20;;;4.30;;
38715;SDS011;24833;49.324;8.694;2024-03-06T11:13:50;4.38;;;3.50;;
38715;SDS011;24833;49.324;8.694;2024-03-06T11:16:27;4.40;;;4.00;;
38715;SDS011;24833;49.324;8.694;2024-03-06T11:19:09;6.00;;;4.70;;
38715;SDS011;24833;49.324;8.694;2024-03-06T11:21:45;4.32;;;3.60;;
38715;SDS011;24833;49.324;8.694;2024-03-06T11:24:14;4.75;;;4.00;;
38715;SDS011;24833;49.324;8.694;2024-03-06T11:26:49;7.22;;;4.40;;
38715;SDS011;24833;49.324;8.694;2024-03-06T11:29:27;4.35;;;3.95;;
38715;SDS011;24833;49.324;8.694;2024-03-06T11:32:16;6.40;;;5.57;;
38715;SDS011;24833;49.324;8.694;2024-03-06T11:34:44;5.68;;;4.57;;
38715;SDS011;24833;49.324;8.694;2024-03-06T11:37:11;7.65;;;5.50;;
38715;SDS011;24833;49.324;8.694;2024-03-06T11:39:38;6.85;;;5.00;;
38715;SDS011;24833;49.324;8.694;2024-03-06T11:42:07;5.30;;;4.45;;
38715;SDS011;24833;49.324;8.694;2024-03-06T11:44:35;7.32;;;5.00;;
38715;SDS011;24833;49.324;8.694;2024-03-06T11:47:03;5.57;;;4.32;;
38715;SDS011;24833;49.324;8.694;2024-03-06T11:49:38;7.38;;;4.88;;
38715;SDS011;24833;49.324;8.694;2024-03-06T11:52:07;5.78;;;4.43;;
38715;SDS011;24833;49.324;8.694;2024-03-06T11:54:36;6.40;;;4.85;;
38715;SDS011;24833;49.324;8.694;2024-03-06T11:57:04;5.20;;;4.07;;
38715;SDS011;24833;49.324;8.694;2024-03-06T11:59:33;4.15;;;3.75;;
38715;SDS011;24833;49.324;8.694;2024-03-06T12:02:03;4.25;;;3.80;;
38715;SDS011;24833;49.324;8.694;2024-03-06T12:04:33;4.72;;;3.92;;
38715;SDS011;24833;49.324;8.694;2024-03-06T12:07:04;4.00;;;3.53;;
38715;SDS011;24833;49.324;8.694;2024-03-06T12:09:32;5.47;;;3.90;;
38715;SDS011;24833;49.324;8.694;2024-03-06T12:12:06;6.00;;;4.30;;
38715;SDS011;24833;49.324;8.694;2024-03-06T12:14:35;4.65;;;4.22;;
38715;SDS011;24833;49.324;8.694;2024-03-06T12:17:02;4.85;;;4.35;;
38715;SDS011;24833;49.324;8.694;2024-03-06T12:19:34;5.07;;;3.72;;
38715;SDS011;24833;49.324;8.694;2024-03-06T12:22:02;5.18;;;4.60;;
38715;SDS011;24833;49.324;8.694;2024-03-06T12:24:31;4.45;;;3.92;;
38715;SDS011;24833;49.324;8.694;2024-03-06T12:27:07;5.53;;;4.63;;
38715;SDS011;24833;49.324;8.694;2024-03-06T12:29:35;4.80;;;4.07;;
38715;SDS011;24833;49.324;8.694;2024-03-06T12:32:04;4.63;;;4.22;;
38715;SDS011;24833;49.324;8.694;2024-03-06T12:34:31;6.18;;;3.92;;
38715;SDS011;24833;49.324;8.694;2024-03-06T12:37:08;5.18;;;4.45;;
38715;SDS011;24833;49.324;8.694;2024-03-06T12:39:39;5.88;;;4.90;;
38715;SDS011;24833;49.324;8.694;2024-03-06T12:42:09;4.43;;;4.03;;
38715;SDS011;24833;49.324;8.694;2024-03-06T12:44:38;5.05;;;4.28;;
38715;SDS011;24833;49.324;8.694;2024-03-06T12:47:06;6.68;;;4.20;;
38715;SDS011;24833;49.324;8.694;2024-03-06T12:49:33;4.20;;;3.50;;
38715;SDS011;24833;49.324;8.694;2024-03-06T12:52:00;4.20;;;3.75;;
38715;SDS011;24833;49.324;8.694;2024-03-06T12:54:31;3.78;;;3.42;;
38715;SDS011;24833;49.324;8.694;2024-03-06T12:56:58;4.50;;;3.45;;
38715;SDS011;24833;49.324;8.694;2024-03-06T12:59:25;3.83;;;3.40;;
38715;SDS011;24833;49.324;8.694;2024-03-06T13:01:52;3.42;;;3.13;;
38715;SDS011;24833;49.324;8.694;2024-03-06T13:04:20;4.82;;;3.70;;
38715;SDS011;24833;49.324;8.694;2024-03-06T13:06:47;4.80;;;3.50;;
38715;SDS011;24833;49.324;8.694;2024-03-06T13:09:14;4.28;;;3.60;;
38715;SDS011;24833;49.324;8.694;2024-03-06T13:11:41;3.83;;;3.13;;
38715;SDS011;24833;49.324;8.694;2024-03-06T13:14:09;4.03;;;3.60;;
38715;SDS011;24833;49.324;8.694;2024-03-06T13:16:38;3.50;;;3.20;;
38715;SDS011;24833;49.324;8.694;2024-03-06T13:19:06;3.55;;;3.25;;
38715;SDS011;24833;49.324;8.694;2024-03-06T13:21:34;3.40;;;3.08;;
38715;SDS011;24833;49.324;8.694;2024-03-06T13:24:01;4.47;;;3.40;;
38715;SDS011;24833;49.324;8.694;2024-03-06T13:26:29;3.65;;;3.00;;
38715;SDS011;24833;49.324;8.694;2024-03-06T13:28:56;3.58;;;3.28;;
38715;SDS011;24833;49.324;8.694;2024-03-06T13:31:23;3.75;;;3.00;;
38715;SDS011;24833;49.324;8.694;2024-03-06T13:33:50;3.25;;;2.95;;
38715;SDS011;24833;49.324;8.694;2024-03-06T13:36:17;7.18;;;3.75;;
38715;SDS011;24833;49.324;8.694;2024-03-06T13:38:44;4.10;;;3.58;;
38715;SDS011;24833;49.324;8.694;2024-03-06T13:41:12;4.18;;;3.55;;
38715;SDS011;24833;49.324;8.694;2024-03-06T13:43:39;4.10;;;3.45;;
38715;SDS011;24833;49.324;8.694;2024-03-06T13:46:06;3.58;;;2.90;;
38715;SDS011;24833;49.324;8.694;2024-03-06T13:48:35;3.47;;;3.15;;
38715;SDS011;24833;49.324;8.694;2024-03-06T13:51:03;3.28;;;2.97;;
38715;SDS011;24833;49.324;8.694;2024-03-06T13:53:30;3.22;;;2.88;;
38715;SDS011;24833;49.324;8.694;2024-03-06T13:55:57;4.07;;;3.30;;
38715;SDS011;24833;49.324;8.694;2024-03-06T13:58:25;3.78;;;3.38;;
38715;SDS011;24833;49.324;8.694;2024-03-06T14:00:52;4.38;;;3.13;;
38715;SDS011;24833;49.324;8.694;2024-03-06T14:03:19;3.38;;;3.08;;
38715;SDS011;24833;49.324;8.694;2024-03-06T14:05:48;3.10;;;2.80;;
38715;SDS011;24833;49.324;8.694;2024-03-06T14:08:15;3.47;;;3.17;;
38715;SDS011;24833;49.324;8.694;2024-03-06T14:10:43;3.90;;;3.10;;
38715;SDS011;24833;49.324;8.694;2024-03-06T14:13:12;4.25;;;2.90;;
38715;SDS011;24833;49.324;8.694;2024-03-06T14:15:39;3.67;;;3.15;;
38715;SDS011;24833;49.324;8.694;2024-03-06T14:18:06;3.63;;;2.95;;
38715;SDS011;24833;49.324;8.694;2024-03-06T14:20:33;3.38;;;3.08;;
38715;SDS011;24833;49.324;8.694;2024-03-06T14:23:00;4.47;;;3.75;;
38715;SDS011;24833;49.324;8.694;2024-03-06T14:25:27;3.97;;;3.40;;
38715;SDS011;24833;49.324;8.694;2024-03-06T14:27:55;4.07;;;3.63;;
38715;SDS011;24833;49.324;8.694;2024-03-06T14:30:23;3.33;;;3.03;;
38715;SDS011;24833;49.324;8.694;2024-03-06T14:32:50;3.35;;;2.95;;
38715;SDS011;24833;49.324;8.694;2024-03-06T14:35:17;4.05;;;3.45;;
38715;SDS011;24833;49.324;8.694;2024-03-06T14:37:44;3.97;;;3.28;;
38715;SDS011;24833;49.324;8.694;2024-03-06T14:40:11;5.82;;;4.00;;
38715;SDS011;24833;49.324;8.694;2024-03-06T14:42:39;4.57;;;4.10;;
38715;SDS011;24833;49.324;8.694;2024-03-06T14:45:06;6.38;;;4.90;;
38715;SDS011;24833;49.324;8.694;2024-03-06T14:47:35;6.28;;;5.13;;
38715;SDS011;24833;49.324;8.694;2024-03-06T14:50:02;9.25;;;5.63;;
38715;SDS011;24833;49.324;8.694;2024-03-06T14:52:30;7.97;;;6.70;;
38715;SDS011;24833;49.324;8.694;2024-03-06T14:54:57;7.38;;;5.95;;
38715;SDS011;24833;49.324;8.694;2024-03-06T14:57:24;6.25;;;5.10;;
38715;SDS011;24833;49.324;8.694;2024-03-06T14:59:51;7.18;;;5.63;;